createdAt,value
2023-01-05T00:04:03.343Z,27.1
2023-01-05T00:08:55.166Z,27.1
2023-01-05T00:14:18.021Z,27.1
2023-01-05T00:19:24.532Z,27.1
2023-01-05T00:24:47.187Z,27.1
2023-01-05T00:30:01.021Z,27
2023-01-05T00:35:08.019Z,27
2023-01-05T00:44:51.629Z,27
2023-01-05T00:49:58.846Z,27
2023-01-05T00:55:06.142Z,27
2023-01-05T00:59:42.373Z,27
2023-01-05T01:04:50.926Z,26.9
2023-01-05T01:15:04.363Z,26.9
2023-01-05T01:20:10.927Z,26.9
2023-01-05T01:25:33.266Z,26.9
2023-01-05T01:30:40.541Z,26.9
2023-01-05T01:35:31.539Z,26.9
2023-01-05T01:40:22.928Z,26.9
2023-01-05T01:45:45.471Z,26.8
2023-01-05T01:50:53.223Z,26.8
2023-01-05T01:56:15.579Z,26.9
2023-01-05T02:01:22.975Z,26.8
2023-01-05T02:06:31.787Z,26.8
2023-01-05T02:16:01.374Z,27.3
2023-01-05T02:20:52.938Z,27.7
2023-01-05T02:26:06.752Z,28.1
2023-01-05T02:30:58.390Z,28.6
2023-01-05T02:35:49.248Z,29.1
2023-01-05T02:40:45.871Z,29.6
2023-01-05T02:45:22.025Z,30.2
2023-01-05T02:50:13.441Z,30.7
2023-01-05T02:55:05.033Z,31.3
2023-01-05T02:59:56.194Z,31.9
2023-01-05T03:05:05.263Z,32.5
2023-01-05T03:18:52.218Z,34.3
2023-01-05T03:23:59.604Z,34.9
2023-01-05T03:29:05.922Z,35.5
2023-01-05T03:33:57.707Z,36.1
2023-01-05T03:39:08.049Z,36.4
2023-01-05T03:43:59.397Z,36.6
2023-01-05T03:48:49.906Z,36.7
2023-01-05T03:53:41.652Z,36.8
2023-01-05T03:58:17.939Z,36.8
2023-01-05T04:08:21.597Z,36.8
2023-01-05T04:13:13.065Z,36.8
2023-01-05T04:18:05.134Z,36.8
2023-01-05T04:28:23.307Z,36.8
2023-01-05T04:33:31.092Z,36.8
2023-01-05T04:38:38.057Z,36.8
2023-01-05T04:43:45.284Z,36.8
2023-01-05T04:48:52.937Z,36.8
2023-01-05T04:58:56.203Z,36.7
2023-01-05T05:03:50.232Z,36.7
2023-01-05T05:08:26.479Z,36.7
2023-01-05T05:13:18.386Z,36.7
2023-01-05T05:23:02.071Z,36.6
2023-01-05T05:27:38.575Z,36.6
2023-01-05T05:32:30.563Z,36.6
2023-01-05T05:37:37.468Z,36.6
2023-01-05T05:42:15.888Z,36.6
2023-01-05T05:47:14.003Z,36.6
2023-01-05T05:52:20.359Z,36.6
2023-01-05T05:57:11.480Z,36.5
2023-01-05T06:02:27.274Z,36.4
2023-01-05T06:07:34.957Z,36.3
2023-01-05T06:12:58.150Z,36.3
2023-01-05T06:18:06.128Z,36.2
2023-01-05T06:23:15.192Z,36.2
2023-01-05T06:28:37.591Z,36.1
2023-01-05T06:34:00.836Z,36.1
2023-01-05T06:39:28.862Z,36.2
2023-01-05T06:44:52.336Z,36.3
2023-01-05T06:50:15.422Z,36.3
2023-01-05T06:55:40.331Z,36.3
2023-01-05T07:01:03.609Z,36.2
2023-01-05T07:06:31.499Z,36.2
2023-01-05T07:11:54.158Z,36.1
2023-01-05T07:17:23.332Z,36.1
2023-01-05T07:22:46.817Z,36.1
2023-01-05T07:28:15.368Z,36.1
2023-01-05T07:33:40.167Z,36
2023-01-05T07:39:09.636Z,36
2023-01-05T07:49:46.023Z,43.6
2023-01-05T07:54:54.175Z,45.6
2023-01-05T08:00:16.943Z,43.3
2023-01-05T08:10:53.244Z,51
2023-01-05T08:16:20.756Z,50.9
2023-01-05T08:21:43.330Z,52.6
2023-01-05T08:27:08.782Z,53.4
2023-01-05T08:37:41.462Z,54
2023-01-05T08:43:08.827Z,54.2
2023-01-05T08:48:34.712Z,55.5
2023-01-05T08:53:57.293Z,56.2
2023-01-05T08:59:24.987Z,56.6
2023-01-05T09:04:54.909Z,57.1
2023-01-05T09:10:17.399Z,57.6
2023-01-05T09:15:40.456Z,58.4
2023-01-05T09:21:33.368Z,59.2
2023-01-05T09:26:40.745Z,59.7
2023-01-05T09:31:56.146Z,59.7
2023-01-05T09:37:18.504Z,59.4
2023-01-05T09:42:44.537Z,59.3
2023-01-05T09:48:09.668Z,59.2
2023-01-05T09:53:32.896Z,59.4
2023-01-05T09:59:36.661Z,59.4
2023-01-05T10:05:42.301Z,59.3
2023-01-05T10:11:04.793Z,59.9
2023-01-05T10:16:29.726Z,59.3
2023-01-05T10:22:35.094Z,59
2023-01-05T10:28:42.712Z,59
2023-01-05T10:34:48.949Z,59.5
2023-01-05T10:41:23.083Z,60.8
2023-01-05T10:47:11.894Z,61.8
2023-01-05T10:52:39.639Z,62.2
2023-01-05T10:58:08.945Z,61.5
2023-01-05T11:03:57.211Z,62.3
2023-01-05T11:09:41.020Z,62.6
2023-01-05T11:15:09.936Z,62.3
2023-01-05T11:20:32.785Z,61.1
2023-01-05T11:25:59.431Z,62.2
2023-01-05T11:36:27.675Z,60.2
2023-01-05T11:41:56.637Z,61.1
2023-01-05T11:47:23.881Z,58.6
2023-01-05T11:52:40.126Z,59.9
2023-01-05T11:57:47.840Z,62.1
2023-01-05T12:03:12.822Z,62.5
2023-01-05T12:08:21.111Z,58.9
2023-01-05T12:13:33.232Z,57.4
2023-01-05T12:19:05.059Z,59.3
2023-01-05T12:24:14.942Z,56.1
2023-01-05T12:38:52.150Z,54.3
2023-01-05T12:44:05.232Z,52.9
2023-01-05T12:49:30.367Z,52.9
2023-01-05T12:59:30.950Z,52.9
2023-01-05T13:05:03.507Z,54.4
2023-01-05T13:10:02.809Z,54.3
2023-01-05T13:14:55.060Z,52.9
2023-01-05T13:24:58.538Z,51.7
2023-01-05T13:30:26.779Z,50.6
2023-01-05T13:35:35.788Z,50.3
2023-01-05T13:40:57.850Z,50.1
2023-01-05T13:46:22.189Z,49.9
2023-01-05T13:52:09.715Z,49.6
2023-01-05T13:57:40.453Z,48.9
2023-01-05T14:03:33.538Z,48
2023-01-05T14:08:57.151Z,47.2
2023-01-05T14:14:19.469Z,46.8
2023-01-05T14:19:28.282Z,46.2
2023-01-05T14:24:57.350Z,45.4
2023-01-05T14:30:04.002Z,44.6
2023-01-05T14:35:27.925Z,42.9
2023-01-05T14:40:42.041Z,40.8
2023-01-05T14:45:48.395Z,39.6
2023-01-05T14:50:57.009Z,38.8
2023-01-05T14:56:43.277Z,38.2
2023-01-05T15:02:09.534Z,37.7
2023-01-05T15:07:36.466Z,37.3
2023-01-05T15:12:59.893Z,36.9
2023-01-05T15:24:01.307Z,36.6
2023-01-05T15:39:35.057Z,36.2
2023-01-05T15:44:42.898Z,36.1
2023-01-05T15:49:50.294Z,36
2023-01-05T15:54:42.915Z,35.9
2023-01-05T16:00:06.542Z,35.8
2023-01-05T16:05:15.130Z,35.7
2023-01-05T16:10:23.755Z,35.6
2023-01-05T16:15:31.854Z,35.4
2023-01-05T16:20:52.448Z,35.3
2023-01-05T16:26:20.155Z,35.2
2023-01-05T16:31:28.572Z,35.1
2023-01-05T16:36:51.277Z,35
2023-01-05T16:42:00.478Z,34.9
2023-01-05T16:46:53.942Z,34.8
2023-01-05T16:52:09.869Z,34.8
2023-01-05T16:57:40.498Z,34.6
2023-01-05T17:02:48.132Z,34.5
2023-01-05T17:07:54.047Z,34.4
2023-01-05T17:13:02.902Z,34.4
2023-01-05T17:18:11.536Z,34.3
2023-01-05T17:23:19.667Z,34.3
2023-01-05T17:28:44.139Z,34.2
2023-01-05T17:33:20.925Z,34.1
2023-01-05T17:38:45.400Z,34.1
2023-01-05T17:47:59.796Z,33.9
2023-01-05T17:53:23.648Z,33.9
2023-01-05T17:58:49.792Z,33.8
2023-01-05T18:04:14.160Z,33.8
2023-01-05T18:09:40.016Z,33.8
2023-01-05T18:15:02.549Z,33.6
2023-01-05T18:20:27.101Z,33.6
2023-01-05T18:25:50.847Z,33.6
2023-01-05T18:31:14.133Z,33.5
2023-01-05T18:36:43.545Z,33.4
2023-01-05T18:42:12.435Z,33.4
2023-01-05T18:47:37.334Z,33.4
2023-01-05T18:53:03.259Z,33.3
2023-01-05T18:58:28.045Z,33.3
2023-01-05T19:03:35.541Z,33.3
2023-01-05T19:09:02.461Z,33.1
2023-01-05T19:14:26.067Z,33
2023-01-05T19:19:33.336Z,32.9
2023-01-05T19:24:59.283Z,32.8
2023-01-05T19:30:07.439Z,32.7
2023-01-05T19:35:30.292Z,32.6
2023-01-05T19:40:55.380Z,32.6
2023-01-05T19:46:21.372Z,32.5
2023-01-05T19:51:46.359Z,32.5
2023-01-05T19:56:54.971Z,32.4
2023-01-05T20:02:04.943Z,32.4
2023-01-05T20:07:12.560Z,32.4
2023-01-05T20:12:47.551Z,32.3
2023-01-05T20:22:46.102Z,32.4
2023-01-05T20:28:12.305Z,32.6
2023-01-05T20:33:20.281Z,33
2023-01-05T20:38:42.768Z,33.7
2023-01-05T20:44:09.951Z,34.6
2023-01-05T20:49:44.147Z,35.6
2023-01-05T20:55:06.058Z,36.6
2023-01-05T21:00:30.916Z,37.4
2023-01-05T21:06:21.953Z,36.7
2023-01-05T21:11:16.679Z,37.1
2023-01-05T21:22:05.956Z,37.7
2023-01-05T21:28:02.880Z,37.9
2023-01-05T21:33:11.581Z,37.9
2023-01-05T21:38:19.119Z,37.9
2023-01-05T21:44:07.499Z,37.9
2023-01-05T21:49:02.371Z,37.9
2023-01-05T21:54:25.552Z,37.9
2023-01-05T21:59:32.453Z,37.8
2023-01-05T22:04:41.385Z,37.8
2023-01-05T22:09:49.429Z,37.8
2023-01-05T22:14:56.983Z,37.8
2023-01-05T22:20:21.079Z,37.7
2023-01-05T22:25:44.363Z,37.7
2023-01-05T22:36:01.287Z,37.6
2023-01-05T22:45:59.721Z,37.4
2023-01-05T22:51:07.914Z,37.4
2023-01-05T22:56:30.661Z,37.4
2023-01-05T23:01:40.220Z,37.3
2023-01-05T23:11:08.079Z,37.3
2023-01-05T23:16:16.006Z,37.3
2023-01-05T23:21:38.473Z,37.1
2023-01-05T23:26:46.640Z,37.1
2023-01-05T23:31:55.830Z,37.1
2023-01-05T23:37:02.664Z,37.1
2023-01-05T23:42:26.578Z,37
2023-01-05T23:47:18.824Z,36.9
2023-01-05T23:52:26.131Z,36.9
2023-01-05T23:57:50.529Z,36.8
